createdAt,value
2023-03-17T00:02:29.131Z,2.20
2023-03-17T00:05:34.326Z,2.08
2023-03-17T00:08:37.269Z,2.08
2023-03-17T00:11:39.170Z,2.25
2023-03-17T00:17:45.453Z,2.17
2023-03-17T00:20:48.126Z,1.95
2023-03-17T00:23:51.086Z,2.00
2023-03-17T00:26:53.236Z,2.10
2023-03-17T00:29:57.677Z,2.55
2023-03-17T00:32:59.682Z,2.00
2023-03-17T00:36:02.099Z,2.22
2023-03-17T00:42:14.474Z,2.20
2023-03-17T00:45:20.563Z,2.20
2023-03-17T00:48:22.507Z,2.22
2023-03-17T00:51:24.376Z,2.33
2023-03-17T00:54:26.275Z,2.60
2023-03-17T00:57:28.563Z,2.45
2023-03-17T01:00:30.653Z,2.15
2023-03-17T01:03:32.686Z,2.20
2023-03-17T01:06:34.583Z,2.15
2023-03-17T01:09:41.456Z,2.30
2023-03-17T01:12:44.375Z,2.40
2023-03-17T01:15:51.566Z,2.25
2023-03-17T01:18:53.564Z,2.30
2023-03-17T01:21:55.498Z,2.45
2023-03-17T01:24:57.300Z,2.60
2023-03-17T01:27:59.896Z,1.90
2023-03-17T01:31:01.891Z,2.25
2023-03-17T01:34:03.936Z,1.88
2023-03-17T01:37:05.921Z,1.80
2023-03-17T01:40:09.300Z,2.50
2023-03-17T01:43:11.271Z,1.83
2023-03-17T01:46:34.426Z,1.92
2023-03-17T01:49:37.870Z,2.30
2023-03-17T01:52:40.508Z,2.20
2023-03-17T01:55:44.799Z,1.77
2023-03-17T01:58:51.955Z,1.83
2023-03-17T02:02:02.626Z,1.75
2023-03-17T02:05:10.916Z,2.08
2023-03-17T02:08:16.081Z,2.53
2023-03-17T02:11:19.155Z,2.40
2023-03-17T02:14:21.243Z,2.20
2023-03-17T02:17:25.453Z,2.60
2023-03-17T02:20:27.508Z,2.60
2023-03-17T02:23:29.718Z,2.70
2023-03-17T02:26:39.521Z,2.40
2023-03-17T02:29:42.087Z,2.53
2023-03-17T02:32:44.041Z,2.45
2023-03-17T02:35:45.968Z,2.83
2023-03-17T02:38:47.964Z,2.20
2023-03-17T02:41:50.085Z,2.65
2023-03-17T02:44:52.856Z,2.60
2023-03-17T02:47:55.560Z,2.40
2023-03-17T02:50:57.563Z,2.35
2023-03-17T02:53:59.563Z,2.47
2023-03-17T02:57:01.456Z,2.30
2023-03-17T03:00:04.137Z,2.13
2023-03-17T03:03:08.341Z,1.73
2023-03-17T03:06:10.306Z,1.92
2023-03-17T03:09:13.735Z,2.10
2023-03-17T03:12:15.620Z,1.45
2023-03-17T03:15:18.021Z,1.90
2023-03-17T03:18:19.965Z,1.77
2023-03-17T03:21:21.851Z,2.22
2023-03-17T03:24:23.741Z,1.90
2023-03-17T03:27:25.606Z,1.85
2023-03-17T03:30:27.564Z,2.20
2023-03-17T03:33:29.453Z,1.75
2023-03-17T03:36:31.393Z,2.03
2023-03-17T03:39:33.260Z,1.90
2023-03-17T03:42:35.276Z,2.22
2023-03-17T03:45:37.185Z,2.50
2023-03-17T03:48:39.094Z,2.10
2023-03-17T03:51:40.961Z,2.42
2023-03-17T03:54:42.938Z,2.38
2023-03-17T03:57:44.825Z,2.80
2023-03-17T04:00:46.799Z,3.20
2023-03-17T04:03:48.751Z,3.17
2023-03-17T04:06:50.648Z,3.53
2023-03-17T04:09:52.545Z,3.22
2023-03-17T04:12:54.414Z,3.00
2023-03-17T04:15:56.262Z,2.80
2023-03-17T04:18:58.220Z,2.60
2023-03-17T04:22:00.160Z,2.20
2023-03-17T04:25:02.227Z,2.58
2023-03-17T04:28:04.743Z,2.58
2023-03-17T04:31:06.667Z,2.10
2023-03-17T04:34:14.795Z,1.98
2023-03-17T04:37:16.743Z,1.83
2023-03-17T04:40:19.481Z,2.42
2023-03-17T04:43:21.721Z,1.60
2023-03-17T04:46:23.730Z,1.80
2023-03-17T04:49:25.620Z,2.30
2023-03-17T04:52:28.154Z,1.85
2023-03-17T04:55:32.458Z,2.00
2023-03-17T04:58:34.301Z,1.80
2023-03-17T05:01:38.031Z,2.00
2023-03-17T05:04:41.449Z,1.75
2023-03-17T05:07:43.718Z,1.77
2023-03-17T05:10:45.764Z,2.50
2023-03-17T05:13:47.841Z,2.30
2023-03-17T05:16:50.563Z,2.22
2023-03-17T05:19:52.519Z,2.05
2023-03-17T05:22:56.914Z,2.70
2023-03-17T05:25:58.759Z,2.03
2023-03-17T05:29:00.830Z,1.92
2023-03-17T05:32:03.046Z,2.00
2023-03-17T05:35:05.235Z,2.10
2023-03-17T05:38:07.353Z,2.22
2023-03-17T05:41:09.492Z,2.60
2023-03-17T05:44:11.355Z,2.25
2023-03-17T05:47:13.648Z,2.42
2023-03-17T05:50:15.844Z,2.00
2023-03-17T05:53:17.954Z,2.08
2023-03-17T05:56:19.977Z,2.47
2023-03-17T05:59:22.108Z,1.77
2023-03-17T06:02:24.217Z,2.25
2023-03-17T06:05:26.213Z,2.38
2023-03-17T06:08:28.278Z,2.17
2023-03-17T06:11:32.998Z,2.17
2023-03-17T06:14:37.160Z,2.75
2023-03-17T06:17:39.180Z,2.83
2023-03-17T06:20:41.415Z,3.10
2023-03-17T06:23:43.549Z,3.10
2023-03-17T06:26:45.443Z,3.05
2023-03-17T06:29:47.454Z,2.92
2023-03-17T06:32:49.311Z,3.33
2023-03-17T06:35:51.574Z,3.95
2023-03-17T06:38:53.486Z,3.25
2023-03-17T06:41:55.485Z,3.47
2023-03-17T06:44:57.564Z,2.85
2023-03-17T06:47:59.495Z,2.50
2023-03-17T06:51:01.768Z,2.10
2023-03-17T06:54:03.742Z,2.20
2023-03-17T06:57:05.815Z,2.22
2023-03-17T07:00:08.983Z,3.03
2023-03-17T07:03:11.103Z,3.13
2023-03-17T07:06:13.041Z,5.13
2023-03-17T07:09:14.959Z,5.43
2023-03-17T07:12:16.857Z,3.70
2023-03-17T07:15:19.273Z,3.30
2023-03-17T07:18:21.322Z,3.00
2023-03-17T07:21:23.183Z,3.08
2023-03-17T07:24:25.701Z,2.70
2023-03-17T07:27:27.593Z,3.22
2023-03-17T07:30:30.022Z,3.45
2023-03-17T07:33:31.923Z,3.63
2023-03-17T07:36:34.480Z,4.53
2023-03-17T07:39:36.975Z,4.43
2023-03-17T07:42:38.879Z,3.50
2023-03-17T07:45:40.987Z,4.03
2023-03-17T07:48:42.847Z,3.70
2023-03-17T07:51:45.124Z,3.35
2023-03-17T07:54:47.137Z,3.00
2023-03-17T07:57:49.171Z,3.60
2023-03-17T08:00:51.367Z,3.40
2023-03-17T08:03:53.619Z,3.97
2023-03-17T08:06:55.914Z,3.17
2023-03-17T08:09:58.323Z,3.20
2023-03-17T08:13:00.645Z,3.53
2023-03-17T08:16:02.805Z,3.50
2023-03-17T08:19:04.872Z,3.25
2023-03-17T08:22:06.966Z,3.40
2023-03-17T08:25:09.160Z,2.90
2023-03-17T08:28:11.015Z,3.65
2023-03-17T08:31:16.058Z,3.10
2023-03-17T08:34:18.384Z,3.33
2023-03-17T08:40:25.593Z,3.38
2023-03-17T08:43:27.509Z,3.60
2023-03-17T08:46:32.073Z,3.17
2023-03-17T08:49:34.043Z,3.78
2023-03-17T08:52:36.364Z,4.38
2023-03-17T08:58:40.476Z,3.60
2023-03-17T09:01:42.488Z,2.95
2023-03-17T09:04:44.328Z,3.38
2023-03-17T09:07:46.879Z,3.00
2023-03-17T09:10:49.149Z,3.03
2023-03-17T09:13:51.142Z,2.92
2023-03-17T09:16:53.014Z,2.75
2023-03-17T09:19:54.875Z,2.72
2023-03-17T09:25:58.831Z,2.75
2023-03-17T09:32:05.841Z,3.30
2023-03-17T09:38:10.618Z,2.80
2023-03-17T09:41:21.692Z,2.97
2023-03-17T09:45:04.811Z,3.20
2023-03-17T09:48:09.400Z,3.10
2023-03-17T09:51:14.882Z,3.28
2023-03-17T09:54:28.143Z,3.72
2023-03-17T09:57:34.870Z,3.58
2023-03-17T10:00:36.864Z,3.08
2023-03-17T10:03:39.162Z,3.20
2023-03-17T10:06:46.083Z,3.55
2023-03-17T10:10:29.367Z,3.80
2023-03-17T10:13:56.052Z,3.50
2023-03-17T10:17:12.174Z,3.40
2023-03-17T10:20:28.540Z,3.00
2023-03-17T10:23:33.565Z,3.17
2023-03-17T10:26:42.025Z,3.38
2023-03-17T10:29:45.556Z,3.20
2023-03-17T10:32:49.997Z,3.30
2023-03-17T10:35:52.044Z,3.63
2023-03-17T10:42:11.305Z,3.67
2023-03-17T10:45:32.401Z,3.78
2023-03-17T10:48:39.378Z,3.42
2023-03-17T10:51:45.105Z,3.10
2023-03-17T10:54:50.610Z,3.05
2023-03-17T10:58:16.974Z,3.25
2023-03-17T11:01:35.827Z,3.17
2023-03-17T11:04:40.271Z,3.35
2023-03-17T11:07:42.169Z,3.00
2023-03-17T11:10:44.663Z,3.08
2023-03-17T11:13:46.608Z,2.78
2023-03-17T11:16:59.174Z,2.70
2023-03-17T11:20:29.399Z,2.80
2023-03-17T11:23:48.639Z,2.85
2023-03-17T11:27:14.993Z,2.60
2023-03-17T11:30:19.598Z,3.08
2023-03-17T11:33:40.247Z,2.85
2023-03-17T11:37:00.714Z,2.83
2023-03-17T11:40:06.040Z,2.80
2023-03-17T11:43:26.621Z,3.22
2023-03-17T11:46:36.224Z,2.95
2023-03-17T11:49:40.848Z,2.85
2023-03-17T12:03:34.241Z,2.78
2023-03-17T12:06:43.570Z,3.03
2023-03-17T12:10:08.975Z,2.92
2023-03-17T12:13:13.980Z,2.78
2023-03-17T12:16:26.054Z,3.00
2023-03-17T12:19:39.702Z,2.83
2023-03-17T12:22:55.180Z,2.75
2023-03-17T12:26:12.559Z,2.63
2023-03-17T12:29:47.883Z,2.45
2023-03-17T12:33:12.385Z,2.70
2023-03-17T12:36:17.792Z,2.83
2023-03-17T12:39:28.953Z,2.70
2023-03-17T12:42:54.725Z,2.28
2023-03-17T12:46:27.062Z,2.60
2023-03-17T12:49:47.460Z,2.95
2023-03-17T12:53:04.320Z,2.63
2023-03-17T12:56:19.630Z,2.88
2023-03-17T12:59:25.597Z,2.22
2023-03-17T13:02:30.616Z,2.55
2023-03-17T13:05:33.750Z,2.00
2023-03-17T13:08:40.878Z,2.30
2023-03-17T13:11:47.202Z,1.85
2023-03-17T13:14:52.071Z,2.30
2023-03-17T13:18:23.062Z,2.00
2023-03-17T13:21:25.633Z,2.40
2023-03-17T13:24:52.438Z,2.33
2023-03-17T13:28:17.349Z,2.03
2023-03-17T13:31:35.254Z,2.20
2023-03-17T13:34:49.532Z,1.90
2023-03-17T13:41:25.253Z,2.05
2023-03-17T13:44:41.480Z,1.75
2023-03-17T13:47:46.930Z,2.20
2023-03-17T13:51:21.406Z,2.28
2023-03-17T13:54:35.307Z,2.40
2023-03-17T13:57:39.513Z,2.15
2023-03-17T14:00:46.512Z,1.80
2023-03-17T14:03:51.786Z,1.50
2023-03-17T14:06:59.648Z,1.90
2023-03-17T14:10:03.589Z,2.00
2023-03-17T14:13:17.759Z,1.85
2023-03-17T14:16:32.724Z,1.90
2023-03-17T14:19:34.883Z,1.95
2023-03-17T14:22:46.038Z,1.70
2023-03-17T14:25:48.148Z,1.83
2023-03-17T14:28:50.446Z,1.58
2023-03-17T14:32:02.357Z,1.55
2023-03-17T14:35:04.813Z,1.63
2023-03-17T14:38:23.537Z,1.73
2023-03-17T14:41:28.352Z,1.88
2023-03-17T14:44:42.157Z,1.95
2023-03-17T14:47:44.503Z,1.92
2023-03-17T14:51:02.048Z,1.92
2023-03-17T14:54:20.656Z,2.05
2023-03-17T14:57:27.660Z,1.60
2023-03-17T15:00:34.520Z,2.20
2023-03-17T15:03:40.234Z,2.28
2023-03-17T15:06:55.129Z,1.85
2023-03-17T15:10:04.683Z,2.47
2023-03-17T15:13:12.085Z,2.15
2023-03-17T15:16:27.857Z,2.33
2023-03-17T15:19:43.056Z,1.98
2023-03-17T15:22:50.000Z,2.20
2023-03-17T15:25:55.301Z,2.17
2023-03-17T15:28:58.893Z,1.73
2023-03-17T15:32:10.087Z,2.00
2023-03-17T15:35:13.709Z,2.00
2023-03-17T15:38:15.721Z,1.80
2023-03-17T15:41:17.834Z,2.22
2023-03-17T15:47:25.397Z,2.17
2023-03-17T15:50:32.141Z,1.98
2023-03-17T15:53:35.148Z,1.85
2023-03-17T15:59:41.846Z,1.95
2023-03-17T16:02:44.640Z,2.22
2023-03-17T16:05:46.563Z,1.73
2023-03-17T16:08:49.551Z,2.72
2023-03-17T16:11:51.442Z,2.15
2023-03-17T16:14:53.306Z,1.65
2023-03-17T16:18:03.387Z,1.92
2023-03-17T16:21:05.687Z,2.08
2023-03-17T16:27:14.847Z,2.22
2023-03-17T16:30:22.025Z,2.22
2023-03-17T16:33:26.852Z,2.15
2023-03-17T16:36:29.249Z,2.10
2023-03-17T16:39:33.325Z,1.92
2023-03-17T16:42:35.645Z,2.10
2023-03-17T16:45:37.564Z,2.90
2023-03-17T16:48:39.449Z,2.63
2023-03-17T16:51:42.054Z,2.72
2023-03-17T16:54:43.913Z,2.25
2023-03-17T16:57:47.874Z,2.15
2023-03-17T17:00:53.692Z,2.10
2023-03-17T17:03:56.202Z,2.70
2023-03-17T17:06:58.120Z,2.50
2023-03-17T17:10:00.076Z,2.20
2023-03-17T17:13:04.633Z,2.30
2023-03-17T17:16:07.823Z,1.77
2023-03-17T17:19:15.463Z,2.08
2023-03-17T17:22:17.521Z,2.22
2023-03-17T17:25:19.602Z,2.35
2023-03-17T17:28:23.582Z,2.47
2023-03-17T17:31:25.602Z,2.85
2023-03-17T17:34:27.613Z,2.40
2023-03-17T17:37:29.610Z,2.78
2023-03-17T17:40:32.133Z,2.42
2023-03-17T17:43:34.347Z,2.80
2023-03-17T17:46:38.514Z,2.42
2023-03-17T17:49:40.424Z,2.30
2023-03-17T17:52:42.515Z,2.33
2023-03-17T17:55:46.361Z,2.47
2023-03-17T17:58:48.273Z,2.35
2023-03-17T18:01:50.225Z,2.63
2023-03-17T18:04:52.826Z,2.85
2023-03-17T18:07:54.738Z,2.45
2023-03-17T18:10:56.617Z,2.60
2023-03-17T18:13:58.634Z,2.80
2023-03-17T18:17:01.810Z,1.95
2023-03-17T18:20:04.700Z,2.15
2023-03-17T18:23:06.777Z,2.50
2023-03-17T18:26:08.627Z,2.10
2023-03-17T18:29:10.637Z,2.53
2023-03-17T18:32:13.390Z,1.80
2023-03-17T18:35:20.371Z,2.05
2023-03-17T18:38:22.264Z,2.47
2023-03-17T18:41:24.501Z,1.95
2023-03-17T18:44:26.591Z,2.33
2023-03-17T18:47:28.691Z,2.33
2023-03-17T18:50:33.868Z,2.22
2023-03-17T18:53:35.920Z,2.38
2023-03-17T18:56:40.238Z,2.80
2023-03-17T18:59:42.133Z,2.75
2023-03-17T19:02:44.601Z,2.42
2023-03-17T19:08:50.585Z,2.67
2023-03-17T19:11:52.503Z,3.53
2023-03-17T19:14:54.390Z,4.05
2023-03-17T19:17:58.558Z,4.13
2023-03-17T19:21:00.464Z,4.25
2023-03-17T19:24:03.058Z,4.15
2023-03-17T19:27:05.671Z,4.35
2023-03-17T19:30:08.152Z,5.10
2023-03-17T19:36:13.380Z,7.35
2023-03-17T19:39:15.558Z,15.80
2023-03-17T19:42:17.501Z,8.48
2023-03-17T19:45:19.907Z,5.53
2023-03-17T19:48:22.191Z,4.20
2023-03-17T19:51:25.316Z,2.67
2023-03-17T19:54:27.787Z,2.75
2023-03-17T20:00:32.769Z,2.97
2023-03-17T20:03:35.812Z,2.42
2023-03-17T20:06:37.678Z,3.13
2023-03-17T20:09:39.611Z,2.30
2023-03-17T20:12:41.561Z,1.90
2023-03-17T20:15:43.527Z,2.10
2023-03-17T20:18:45.409Z,2.25
2023-03-17T20:21:47.330Z,2.30
2023-03-17T20:24:49.246Z,1.90
2023-03-17T20:27:53.808Z,2.00
2023-03-17T20:30:59.322Z,2.47
2023-03-17T20:34:01.213Z,2.10
2023-03-17T20:37:03.559Z,2.30
2023-03-17T20:40:05.953Z,2.40
2023-03-17T20:43:07.848Z,2.42
2023-03-17T20:46:15.974Z,3.05
2023-03-17T20:49:17.973Z,3.88
2023-03-17T20:52:20.029Z,4.15
2023-03-17T20:55:22.394Z,3.08
2023-03-17T20:58:24.360Z,2.85
2023-03-17T21:01:26.929Z,2.30
2023-03-17T21:07:30.676Z,2.58
2023-03-17T21:10:33.053Z,2.58
2023-03-17T21:16:42.455Z,2.35
2023-03-17T21:19:46.800Z,2.63
2023-03-17T21:22:48.643Z,2.63
2023-03-17T21:25:55.300Z,3.30
2023-03-17T21:28:57.104Z,2.95
2023-03-17T21:31:59.968Z,3.10
2023-03-17T21:35:02.052Z,2.40
2023-03-17T21:38:03.936Z,2.53
2023-03-17T21:41:20.320Z,2.53
2023-03-17T21:44:22.714Z,2.25
2023-03-17T21:47:24.791Z,2.63
2023-03-17T21:50:26.876Z,2.60
2023-03-17T21:56:31.099Z,2.60
2023-03-17T21:59:32.983Z,3.28
2023-03-17T22:02:35.183Z,2.63
2023-03-17T22:05:37.047Z,2.63
2023-03-17T22:08:39.074Z,2.60
2023-03-17T22:11:41.226Z,3.45
2023-03-17T22:14:43.146Z,2.88
2023-03-17T22:17:45.026Z,3.15
2023-03-17T22:20:46.909Z,2.78
2023-03-17T22:23:48.901Z,2.65
2023-03-17T22:26:50.878Z,2.88
2023-03-17T22:29:53.216Z,2.78
2023-03-17T22:35:57.644Z,2.83
2023-03-17T22:39:00.015Z,3.95
2023-03-17T22:42:02.136Z,4.05
2023-03-17T22:45:06.469Z,3.60
2023-03-17T22:48:08.497Z,3.55
2023-03-17T22:51:16.983Z,3.28
2023-03-17T22:57:20.793Z,2.95
2023-03-17T23:00:25.197Z,3.03
2023-03-17T23:03:27.666Z,3.08
2023-03-17T23:06:29.667Z,2.95
2023-03-17T23:09:32.022Z,3.50
2023-03-17T23:12:37.328Z,3.63
2023-03-17T23:15:39.221Z,3.95
2023-03-17T23:18:41.905Z,4.15
2023-03-17T23:21:44.449Z,3.33
2023-03-17T23:24:46.475Z,4.05
2023-03-17T23:27:49.001Z,3.38
2023-03-17T23:33:53.691Z,3.10
2023-03-17T23:36:55.622Z,4.00
2023-03-17T23:40:00.544Z,4.00
2023-03-17T23:43:02.688Z,3.53
2023-03-17T23:46:05.345Z,3.30
2023-03-17T23:49:09.797Z,3.30
2023-03-17T23:52:11.751Z,3.33
2023-03-17T23:55:14.230Z,3.30
